<?xml version="1.0" encoding="UTF-8" standalone="no" ?><gpx xmlns="http://www.topografix.com/GPX/1/1" xmlns:gpxx="http://www.garmin.com/xmlschemas/GpxExtensions/v3" xmlns:wptx1="http://www.garmin.com/xmlschemas/WaypointExtension/v1" xmlns:gpxtpx="http://www.garmin.com/xmlschemas/TrackPointExtension/v1" creator="GuideVTT.com" version="1.1" xmlns:xsi="http://www.w3.org/2001/XMLSchema-instance" xsi:schemaLocation="http://www.topografix.com/GPX/1/1 http://www.topografix.com/GPX/1/1/gpx.xsd http://www.garmin.com/xmlschemas/GpxExtensions/v3 http://www8.garmin.com/xmlschemas/GpxExtensionsv3.xsd http://www.garmin.com/xmlschemas/WaypointExtension/v1 http://www8.garmin.com/xmlschemas/WaypointExtensionv1.xsd http://www.garmin.com/xmlschemas/TrackPointExtension/v1 http://www.garmin.com/xmlschemas/TrackPointExtensionv1.xsd">
<metadata><link href="http://www.garmin.com"><text>Garmin International</text></link><time>2013-06-22T15:13:50Z</time></metadata>
<trk><name>eison.gpx</name><extensions><gpxx:TrackExtension><gpxx:DisplayColor>Cyan</gpxx:DisplayColor></gpxx:TrackExtension></extensions><trkseg>
<trkpt lat="46.15660683" lon="7.46319939"><ele>1617.55542</ele><time>2006-01-15T12:08:01Z</time></trkpt>
<trkpt lat="46.15643567" lon="7.46316419"><ele>1612.268311</ele><time>2006-01-15T12:08:15Z</time></trkpt>
<trkpt lat="46.15628832" lon="7.46317131"><ele>1615.152344</ele><time>2006-01-15T12:08:25Z</time></trkpt>
<trkpt lat="46.15615019" lon="7.46323041"><ele>1616.594238</ele><time>2006-01-15T12:08:34Z</time></trkpt>
<trkpt lat="46.15599898" lon="7.46339167"><ele>1618.036133</ele><time>2006-01-15T12:08:46Z</time></trkpt>
<trkpt lat="46.15588733" lon="7.46356820"><ele>1617.55542</ele><time>2006-01-15T12:08:57Z</time></trkpt>
<trkpt lat="46.15575506" lon="7.46377347"><ele>1615.152344</ele><time>2006-01-15T12:09:11Z</time></trkpt>
<trkpt lat="46.15564166" lon="7.46397212"><ele>1616.113525</ele><time>2006-01-15T12:09:22Z</time></trkpt>
<trkpt lat="46.15553931" lon="7.46411503"><ele>1615.633057</ele><time>2006-01-15T12:09:31Z</time></trkpt>
<trkpt lat="46.15542331" lon="7.46418385"><ele>1611.787598</ele><time>2006-01-15T12:09:40Z</time></trkpt>
<trkpt lat="46.15530118" lon="7.46414445"><ele>1608.422852</ele><time>2006-01-15T12:09:49Z</time></trkpt>
<trkpt lat="46.15515383" lon="7.46403717"><ele>1612.268311</ele><time>2006-01-15T12:09:59Z</time></trkpt>
<trkpt lat="46.15505618" lon="7.46386911"><ele>1613.229736</ele><time>2006-01-15T12:10:09Z</time></trkpt>
<trkpt lat="46.15491310" lon="7.46355780"><ele>1613.710205</ele><time>2006-01-15T12:10:26Z</time></trkpt>
<trkpt lat="46.15482300" lon="7.46356032"><ele>1609.864746</ele><time>2006-01-15T12:10:33Z</time></trkpt>
<trkpt lat="46.15463985" lon="7.46374078"><ele>1606.980957</ele><time>2006-01-15T12:10:47Z</time></trkpt>
<trkpt lat="46.15448982" lon="7.46388738"><ele>1605.05835</ele><time>2006-01-15T12:10:59Z</time></trkpt>
<trkpt lat="46.15435847" lon="7.46407757"><ele>1606.500244</ele><time>2006-01-15T12:11:11Z</time></trkpt>
<trkpt lat="46.15423199" lon="7.46432533"><ele>1609.384277</ele><time>2006-01-15T12:11:25Z</time></trkpt>
<trkpt lat="46.15421489" lon="7.46435693"><ele>1609.864746</ele><time>2006-01-15T12:11:32Z</time></trkpt>
<trkpt lat="46.15419846" lon="7.46437336"><ele>1613.710205</ele><time>2006-01-15T12:11:44Z</time></trkpt>
<trkpt lat="46.15419377" lon="7.46438560"><ele>1611.306885</ele><time>2006-01-15T12:11:57Z</time></trkpt>
<trkpt lat="46.15419813" lon="7.46437219"><ele>1615.152344</ele><time>2006-01-15T12:12:13Z</time></trkpt>
<trkpt lat="46.15419636" lon="7.46436800"><ele>1614.190918</ele><time>2006-01-15T12:12:27Z</time></trkpt>
<trkpt lat="46.15418346" lon="7.46436842"><ele>1614.671631</ele><time>2006-01-15T12:12:37Z</time></trkpt>
<trkpt lat="46.15419997" lon="7.46438736"><ele>1607.46167</ele><time>2006-01-15T12:13:03Z</time></trkpt>
<trkpt lat="46.15417558" lon="7.46439465"><ele>1616.113525</ele><time>2006-01-15T12:13:15Z</time></trkpt>
<trkpt lat="46.15417566" lon="7.46439138"><ele>1616.594238</ele><time>2006-01-15T12:13:36Z</time></trkpt>
<trkpt lat="46.15418010" lon="7.46440203"><ele>1622.842773</ele><time>2006-01-15T12:13:56Z</time></trkpt>
<trkpt lat="46.15418555" lon="7.46439532"><ele>1620.920166</ele><time>2006-01-15T12:14:23Z</time></trkpt>
<trkpt lat="46.15418673" lon="7.46439666"><ele>1620.920166</ele><time>2006-01-15T12:14:39Z</time></trkpt>
<trkpt lat="46.15405957" lon="7.46461149"><ele>1620.920166</ele><time>2006-01-15T12:14:58Z</time></trkpt>
<trkpt lat="46.15395580" lon="7.46479950"><ele>1618.516846</ele><time>2006-01-15T12:15:10Z</time></trkpt>
<trkpt lat="46.15386989" lon="7.46496311"><ele>1617.074951</ele><time>2006-01-15T12:15:20Z</time></trkpt>
<trkpt lat="46.15375229" lon="7.46516126"><ele>1616.113525</ele><time>2006-01-15T12:15:32Z</time></trkpt>
<trkpt lat="46.15364182" lon="7.46536394"><ele>1615.152344</ele><time>2006-01-15T12:15:44Z</time></trkpt>
<trkpt lat="46.15348692" lon="7.46564565"><ele>1614.190918</ele><time>2006-01-15T12:16:00Z</time></trkpt>
<trkpt lat="46.15336035" lon="7.46584271"><ele>1613.229736</ele><time>2006-01-15T12:16:13Z</time></trkpt>
<trkpt lat="46.15323965" lon="7.46604036"><ele>1612.749023</ele><time>2006-01-15T12:16:25Z</time></trkpt>
<trkpt lat="46.15312373" lon="7.46620456"><ele>1611.306885</ele><time>2006-01-15T12:16:36Z</time></trkpt>
<trkpt lat="46.15299013" lon="7.46632819"><ele>1609.864746</ele><time>2006-01-15T12:16:47Z</time></trkpt>
<trkpt lat="46.15279390" lon="7.46632945"><ele>1606.980957</ele><time>2006-01-15T12:17:00Z</time></trkpt>
<trkpt lat="46.15256424" lon="7.46630640"><ele>1608.422852</ele><time>2006-01-15T12:17:13Z</time></trkpt>
<trkpt lat="46.15232083" lon="7.46632249"><ele>1607.942383</ele><time>2006-01-15T12:17:29Z</time></trkpt>
<trkpt lat="46.15220642" lon="7.46641897"><ele>1606.980957</ele><time>2006-01-15T12:17:38Z</time></trkpt>
<trkpt lat="46.15206812" lon="7.46655048"><ele>1606.019531</ele><time>2006-01-15T12:17:49Z</time></trkpt>
<trkpt lat="46.15189335" lon="7.46671619"><ele>1605.05835</ele><time>2006-01-15T12:18:02Z</time></trkpt>
<trkpt lat="46.15180174" lon="7.46686916"><ele>1603.135742</ele><time>2006-01-15T12:18:12Z</time></trkpt>
<trkpt lat="46.15172655" lon="7.46710050"><ele>1600.251953</ele><time>2006-01-15T12:18:23Z</time></trkpt>
<trkpt lat="46.15160602" lon="7.46732094"><ele>1597.36792</ele><time>2006-01-15T12:18:36Z</time></trkpt>
<trkpt lat="46.15144970" lon="7.46751850"><ele>1594.964355</ele><time>2006-01-15T12:18:49Z</time></trkpt>
<trkpt lat="46.15129841" lon="7.46759671"><ele>1594.483643</ele><time>2006-01-15T12:18:59Z</time></trkpt>
<trkpt lat="46.15114032" lon="7.46760576"><ele>1594.003174</ele><time>2006-01-15T12:19:09Z</time></trkpt>
<trkpt lat="46.15090462" lon="7.46753083"><ele>1595.445068</ele><time>2006-01-15T12:19:26Z</time></trkpt>
<trkpt lat="46.15081469" lon="7.46738146"><ele>1595.925781</ele><time>2006-01-15T12:19:36Z</time></trkpt>
<trkpt lat="46.15068292" lon="7.46725179"><ele>1594.003174</ele><time>2006-01-15T12:19:47Z</time></trkpt>
<trkpt lat="46.15053062" lon="7.46727962"><ele>1594.483643</ele><time>2006-01-15T12:19:57Z</time></trkpt>
<trkpt lat="46.15037782" lon="7.46743334"><ele>1593.522461</ele><time>2006-01-15T12:20:10Z</time></trkpt>
<trkpt lat="46.15021563" lon="7.46763275"><ele>1592.561279</ele><time>2006-01-15T12:20:24Z</time></trkpt>
<trkpt lat="46.15006023" lon="7.46781430"><ele>1591.599854</ele><time>2006-01-15T12:20:37Z</time></trkpt>
<trkpt lat="46.14994255" lon="7.46794355"><ele>1590.157959</ele><time>2006-01-15T12:20:47Z</time></trkpt>
<trkpt lat="46.14979193" lon="7.46812653"><ele>1588.716064</ele><time>2006-01-15T12:21:00Z</time></trkpt>
<trkpt lat="46.14964415" lon="7.46831235"><ele>1587.754639</ele><time>2006-01-15T12:21:13Z</time></trkpt>
<trkpt lat="46.14956444" lon="7.46850623"><ele>1587.273926</ele><time>2006-01-15T12:21:24Z</time></trkpt>
<trkpt lat="46.14953133" lon="7.46873631"><ele>1586.312744</ele><time>2006-01-15T12:21:35Z</time></trkpt>
<trkpt lat="46.14951490" lon="7.46899774"><ele>1584.87085</ele><time>2006-01-15T12:21:47Z</time></trkpt>
<trkpt lat="46.14949378" lon="7.46928466"><ele>1582.947998</ele><time>2006-01-15T12:22:00Z</time></trkpt>
<trkpt lat="46.14947442" lon="7.46956872"><ele>1581.986816</ele><time>2006-01-15T12:22:13Z</time></trkpt>
<trkpt lat="46.14939068" lon="7.46983459"><ele>1580.544922</ele><time>2006-01-15T12:22:26Z</time></trkpt>
<trkpt lat="46.14926739" lon="7.47005847"><ele>1579.583252</ele><time>2006-01-15T12:22:39Z</time></trkpt>
<trkpt lat="46.14912758" lon="7.47029224"><ele>1577.660645</ele><time>2006-01-15T12:22:53Z</time></trkpt>
<trkpt lat="46.14897519" lon="7.47052979"><ele>1576.21875</ele><time>2006-01-15T12:23:08Z</time></trkpt>
<trkpt lat="46.14889397" lon="7.47073749"><ele>1575.738037</ele><time>2006-01-15T12:23:19Z</time></trkpt>
<trkpt lat="46.14879339" lon="7.47095844"><ele>1575.257324</ele><time>2006-01-15T12:23:31Z</time></trkpt>
<trkpt lat="46.14870513" lon="7.47116270"><ele>1574.776855</ele><time>2006-01-15T12:23:43Z</time></trkpt>
<trkpt lat="46.14862139" lon="7.47132925"><ele>1575.257324</ele><time>2006-01-15T12:23:53Z</time></trkpt>
<trkpt lat="46.14850103" lon="7.47153536"><ele>1575.738037</ele><time>2006-01-15T12:24:06Z</time></trkpt>
<trkpt lat="46.14844638" lon="7.47173913"><ele>1575.257324</ele><time>2006-01-15T12:24:17Z</time></trkpt>
<trkpt lat="46.14840900" lon="7.47197038"><ele>1575.738037</ele><time>2006-01-15T12:24:29Z</time></trkpt>
<trkpt lat="46.14832308" lon="7.47215244"><ele>1576.21875</ele><time>2006-01-15T12:24:40Z</time></trkpt>
<trkpt lat="46.14828117" lon="7.47234715"><ele>1577.180176</ele><time>2006-01-15T12:24:51Z</time></trkpt>
<trkpt lat="46.14824915" lon="7.47256240"><ele>1576.699463</ele><time>2006-01-15T12:25:02Z</time></trkpt>
<trkpt lat="46.14819920" lon="7.47278720"><ele>1576.699463</ele><time>2006-01-15T12:25:14Z</time></trkpt>
<trkpt lat="46.14813650" lon="7.47296926"><ele>1576.699463</ele><time>2006-01-15T12:25:25Z</time></trkpt>
<trkpt lat="46.14808126" lon="7.47314075"><ele>1576.699463</ele><time>2006-01-15T12:25:36Z</time></trkpt>
<trkpt lat="46.14800465" lon="7.47331224"><ele>1576.21875</ele><time>2006-01-15T12:25:47Z</time></trkpt>
<trkpt lat="46.14791597" lon="7.47346396"><ele>1577.180176</ele><time>2006-01-15T12:25:58Z</time></trkpt>
<trkpt lat="46.14786996" lon="7.47362070"><ele>1576.21875</ele><time>2006-01-15T12:26:08Z</time></trkpt>
<trkpt lat="46.14783660" lon="7.47376730"><ele>1577.660645</ele><time>2006-01-15T12:26:18Z</time></trkpt>
<trkpt lat="46.14784548" lon="7.47377710"><ele>1571.412109</ele><time>2006-01-15T12:26:31Z</time></trkpt>
<trkpt lat="46.14787348" lon="7.47384609"><ele>1582.467529</ele><time>2006-01-15T12:26:51Z</time></trkpt>
<trkpt lat="46.14785445" lon="7.47391943"><ele>1582.467529</ele><time>2006-01-15T12:26:55Z</time></trkpt>
<trkpt lat="46.14783467" lon="7.47394868"><ele>1582.947998</ele><time>2006-01-15T12:26:57Z</time></trkpt>
<trkpt lat="46.14781925" lon="7.47424465"><ele>1581.986816</ele><time>2006-01-15T12:27:11Z</time></trkpt>
<trkpt lat="46.14779309" lon="7.47447884"><ele>1580.064209</ele><time>2006-01-15T12:27:23Z</time></trkpt>
<trkpt lat="46.14775873" lon="7.47470565"><ele>1580.544922</ele><time>2006-01-15T12:27:34Z</time></trkpt>
<trkpt lat="46.14747718" lon="7.47500514"><ele>1579.583252</ele><time>2006-01-15T12:28:01Z</time></trkpt>
<trkpt lat="46.14744650" lon="7.47493817"><ele>1581.025635</ele><time>2006-01-15T12:28:05Z</time></trkpt>
<trkpt lat="46.14733234" lon="7.47467531"><ele>1581.506104</ele><time>2006-01-15T12:28:15Z</time></trkpt>
<trkpt lat="46.14706077" lon="7.47435043"><ele>1578.62207</ele><time>2006-01-15T12:28:37Z</time></trkpt>
<trkpt lat="46.14680269" lon="7.47409729"><ele>1577.660645</ele><time>2006-01-15T12:28:57Z</time></trkpt>
<trkpt lat="46.14658853" lon="7.47380401"><ele>1574.296143</ele><time>2006-01-15T12:29:17Z</time></trkpt>
<trkpt lat="46.14654964" lon="7.47350444"><ele>1575.738037</ele><time>2006-01-15T12:29:29Z</time></trkpt>
<trkpt lat="46.14650865" lon="7.47318434"><ele>1574.776855</ele><time>2006-01-15T12:29:43Z</time></trkpt>
<trkpt lat="46.14647688" lon="7.47288167"><ele>1573.334961</ele><time>2006-01-15T12:29:57Z</time></trkpt>
<trkpt lat="46.14638200" lon="7.47266390"><ele>1571.892822</ele><time>2006-01-15T12:30:08Z</time></trkpt>
<trkpt lat="46.14603952" lon="7.47234665"><ele>1569.970215</ele><time>2006-01-15T12:30:36Z</time></trkpt>
<trkpt lat="46.14594187" lon="7.47222645"><ele>1569.970215</ele><time>2006-01-15T12:30:46Z</time></trkpt>
<trkpt lat="46.14587598" lon="7.47198874"><ele>1572.373535</ele><time>2006-01-15T12:30:58Z</time></trkpt>
<trkpt lat="46.14577549" lon="7.47181314"><ele>1569.970215</ele><time>2006-01-15T12:31:09Z</time></trkpt>
<trkpt lat="46.14563601" lon="7.47158884"><ele>1570.450928</ele><time>2006-01-15T12:31:23Z</time></trkpt>
<trkpt lat="46.14553660" lon="7.47150393"><ele>1579.583252</ele><time>2006-01-15T12:31:59Z</time></trkpt>
<trkpt lat="46.14539864" lon="7.47143746"><ele>1577.180176</ele><time>2006-01-15T12:32:28Z</time></trkpt>
<trkpt lat="46.14524977" lon="7.47148960"><ele>1576.699463</ele><time>2006-01-15T12:32:39Z</time></trkpt>
<trkpt lat="46.14510125" lon="7.47159664"><ele>1573.81543</ele><time>2006-01-15T12:32:51Z</time></trkpt>
<trkpt lat="46.14495062" lon="7.47167568"><ele>1573.81543</ele><time>2006-01-15T12:33:02Z</time></trkpt>
<trkpt lat="46.14477762" lon="7.47171423"><ele>1575.738037</ele><time>2006-01-15T12:33:14Z</time></trkpt>
<trkpt lat="46.14462767" lon="7.47176243"><ele>1575.257324</ele><time>2006-01-15T12:33:25Z</time></trkpt>
<trkpt lat="46.14445567" lon="7.47184860"><ele>1575.738037</ele><time>2006-01-15T12:33:38Z</time></trkpt>
<trkpt lat="46.14429172" lon="7.47193359"><ele>1574.296143</ele><time>2006-01-15T12:33:51Z</time></trkpt>
<trkpt lat="46.14419181" lon="7.47198539"><ele>1573.334961</ele><time>2006-01-15T12:34:00Z</time></trkpt>
<trkpt lat="46.14410648" lon="7.47201263"><ele>1575.257324</ele><time>2006-01-15T12:34:09Z</time></trkpt>
<trkpt lat="46.14405166" lon="7.47206083"><ele>1575.738037</ele><time>2006-01-15T12:34:18Z</time></trkpt>
<trkpt lat="46.14398343" lon="7.47212872"><ele>1578.62207</ele><time>2006-01-15T12:34:27Z</time></trkpt>
<trkpt lat="46.14393339" lon="7.47220080"><ele>1580.064209</ele><time>2006-01-15T12:34:36Z</time></trkpt>
<trkpt lat="46.14388520" lon="7.47230273"><ele>1580.064209</ele><time>2006-01-15T12:34:46Z</time></trkpt>
<trkpt lat="46.14380004" lon="7.47239493"><ele>1583.428711</ele><time>2006-01-15T12:34:56Z</time></trkpt>
<trkpt lat="46.14374061" lon="7.47243089"><ele>1582.947998</ele><time>2006-01-15T12:35:03Z</time></trkpt>
<trkpt lat="46.14373173" lon="7.47243960"><ele>1582.947998</ele><time>2006-01-15T12:35:04Z</time></trkpt>
<trkpt lat="46.14366417" lon="7.47249928"><ele>1583.428711</ele><time>2006-01-15T12:35:12Z</time></trkpt>
<trkpt lat="46.14359058" lon="7.47256516"><ele>1589.196533</ele><time>2006-01-15T12:35:38Z</time></trkpt>
<trkpt lat="46.14361941" lon="7.47260557"><ele>1589.677246</ele><time>2006-01-15T12:36:09Z</time></trkpt>
<trkpt lat="46.14360457" lon="7.47262359"><ele>1597.36792</ele><time>2006-01-15T12:36:26Z</time></trkpt>
<trkpt lat="46.14357113" lon="7.47270070"><ele>1594.003174</ele><time>2006-01-15T12:36:33Z</time></trkpt>
<trkpt lat="46.14353752" lon="7.47275803"><ele>1592.561279</ele><time>2006-01-15T12:36:38Z</time></trkpt>
<trkpt lat="46.14346024" lon="7.47289793"><ele>1592.080566</ele><time>2006-01-15T12:36:50Z</time></trkpt>
<trkpt lat="46.14340374" lon="7.47299147"><ele>1591.119141</ele><time>2006-01-15T12:36:58Z</time></trkpt>
<trkpt lat="46.14335353" lon="7.47307059"><ele>1591.119141</ele><time>2006-01-15T12:37:06Z</time></trkpt>
<trkpt lat="46.14331079" lon="7.47314134"><ele>1592.080566</ele><time>2006-01-15T12:37:14Z</time></trkpt>
<trkpt lat="46.14326896" lon="7.47321007"><ele>1592.561279</ele><time>2006-01-15T12:37:22Z</time></trkpt>
<trkpt lat="46.14322680" lon="7.47331174"><ele>1593.041748</ele><time>2006-01-15T12:37:35Z</time></trkpt>
<trkpt lat="46.14316519" lon="7.47337125"><ele>1594.483643</ele><time>2006-01-15T12:37:44Z</time></trkpt>
<trkpt lat="46.14308825" lon="7.47342112"><ele>1599.290527</ele><time>2006-01-15T12:37:55Z</time></trkpt>
<trkpt lat="46.14299588" lon="7.47346781"><ele>1605.539063</ele><time>2006-01-15T12:38:05Z</time></trkpt>
<trkpt lat="46.14288012" lon="7.47354141"><ele>1606.019531</ele><time>2006-01-15T12:38:18Z</time></trkpt>
<trkpt lat="46.14281265" lon="7.47354442"><ele>1605.539063</ele><time>2006-01-15T12:38:25Z</time></trkpt>
<trkpt lat="46.14272757" lon="7.47364442"><ele>1605.539063</ele><time>2006-01-15T12:38:37Z</time></trkpt>
<trkpt lat="46.14260939" lon="7.47370737"><ele>1607.46167</ele><time>2006-01-15T12:38:51Z</time></trkpt>
<trkpt lat="46.14257201" lon="7.47383469"><ele>1609.384277</ele><time>2006-01-15T12:39:02Z</time></trkpt>
<trkpt lat="46.14251811" lon="7.47391641"><ele>1612.749023</ele><time>2006-01-15T12:39:11Z</time></trkpt>
<trkpt lat="46.14242331" lon="7.47405094"><ele>1615.633057</ele><time>2006-01-15T12:39:27Z</time></trkpt>
<trkpt lat="46.14234150" lon="7.47414163"><ele>1618.997559</ele><time>2006-01-15T12:39:40Z</time></trkpt>
<trkpt lat="46.14224084" lon="7.47418547"><ele>1620.920166</ele><time>2006-01-15T12:39:52Z</time></trkpt>
<trkpt lat="46.14216590" lon="7.47423358"><ele>1621.881348</ele><time>2006-01-15T12:40:02Z</time></trkpt>
<trkpt lat="46.14205208" lon="7.47425127"><ele>1618.997559</ele><time>2006-01-15T12:40:12Z</time></trkpt>
<trkpt lat="46.14201696" lon="7.47425772"><ele>1617.55542</ele><time>2006-01-15T12:40:15Z</time></trkpt>
<trkpt lat="46.14182409" lon="7.47431405"><ele>1613.710205</ele><time>2006-01-15T12:40:31Z</time></trkpt>
<trkpt lat="46.14165410" lon="7.47444221"><ele>1616.113525</ele><time>2006-01-15T12:40:46Z</time></trkpt>
<trkpt lat="46.14144146" lon="7.47447314"><ele>1614.671631</ele><time>2006-01-15T12:41:05Z</time></trkpt>
<trkpt lat="46.14120701" lon="7.47445554"><ele>1615.152344</ele><time>2006-01-15T12:41:25Z</time></trkpt>
<trkpt lat="46.14106779" lon="7.47434724"><ele>1612.749023</ele><time>2006-01-15T12:41:37Z</time></trkpt>
<trkpt lat="46.14098506" lon="7.47432956"><ele>1613.710205</ele><time>2006-01-15T12:41:43Z</time></trkpt>
<trkpt lat="46.14086889" lon="7.47443416"><ele>1619.478271</ele><time>2006-01-15T12:41:56Z</time></trkpt>
<trkpt lat="46.14074877" lon="7.47457900"><ele>1621.881348</ele><time>2006-01-15T12:42:10Z</time></trkpt>
<trkpt lat="46.14067744" lon="7.47467682"><ele>1624.284668</ele><time>2006-01-15T12:42:24Z</time></trkpt>
<trkpt lat="46.14053193" lon="7.47496398"><ele>1623.323486</ele><time>2006-01-15T12:42:54Z</time></trkpt>
<trkpt lat="46.14047402" lon="7.47510823"><ele>1619.478271</ele><time>2006-01-15T12:43:06Z</time></trkpt>
<trkpt lat="46.14038659" lon="7.47522499"><ele>1619.95874</ele><time>2006-01-15T12:43:18Z</time></trkpt>
<trkpt lat="46.14030554" lon="7.47531543"><ele>1627.64917</ele><time>2006-01-15T12:43:30Z</time></trkpt>
<trkpt lat="46.14027570" lon="7.47543756"><ele>1632.456055</ele><time>2006-01-15T12:43:44Z</time></trkpt>
<trkpt lat="46.14025634" lon="7.47544854"><ele>1638.223877</ele><time>2006-01-15T12:43:54Z</time></trkpt>
<trkpt lat="46.14026732" lon="7.47544904"><ele>1642.069092</ele><time>2006-01-15T12:44:07Z</time></trkpt>
<trkpt lat="46.14028626" lon="7.47545801"><ele>1643.991699</ele><time>2006-01-15T12:44:23Z</time></trkpt>
<trkpt lat="46.14028886" lon="7.47548106"><ele>1636.781738</ele><time>2006-01-15T12:44:43Z</time></trkpt>
<trkpt lat="46.14028693" lon="7.47549489"><ele>1635.339844</ele><time>2006-01-15T12:45:00Z</time></trkpt>
<trkpt lat="46.14028450" lon="7.47549975"><ele>1635.820557</ele><time>2006-01-15T12:45:14Z</time></trkpt>
<trkpt lat="46.14028282" lon="7.47550168"><ele>1635.339844</ele><time>2006-01-15T12:45:32Z</time></trkpt>
<trkpt lat="46.14030085" lon="7.47552867"><ele>1636.30127</ele><time>2006-01-15T12:45:46Z</time></trkpt>
<trkpt lat="46.14029976" lon="7.47552574"><ele>1633.417236</ele><time>2006-01-15T12:45:58Z</time></trkpt>
<trkpt lat="46.14030956" lon="7.47551451"><ele>1630.533447</ele><time>2006-01-15T12:46:12Z</time></trkpt>
<trkpt lat="46.14030546" lon="7.47554719"><ele>1632.936523</ele><time>2006-01-15T12:46:24Z</time></trkpt>
<trkpt lat="46.14025961" lon="7.47565616"><ele>1642.069092</ele><time>2006-01-15T12:46:37Z</time></trkpt>
<trkpt lat="46.14022675" lon="7.47577191"><ele>1644.472412</ele><time>2006-01-15T12:46:52Z</time></trkpt>
<trkpt lat="46.14014519" lon="7.47589001"><ele>1644.953125</ele><time>2006-01-15T12:47:06Z</time></trkpt>
<trkpt lat="46.14000790" lon="7.47593829"><ele>1644.472412</ele><time>2006-01-15T12:47:21Z</time></trkpt>
<trkpt lat="46.13990312" lon="7.47602614"><ele>1645.914551</ele><time>2006-01-15T12:47:33Z</time></trkpt>
<trkpt lat="46.13979315" lon="7.47609713"><ele>1648.79834</ele><time>2006-01-15T12:47:46Z</time></trkpt>
<trkpt lat="46.13972861" lon="7.47617517"><ele>1648.317627</ele><time>2006-01-15T12:47:58Z</time></trkpt>
<trkpt lat="46.13966399" lon="7.47626284"><ele>1649.759766</ele><time>2006-01-15T12:48:09Z</time></trkpt>
<trkpt lat="46.13958662" lon="7.47634289"><ele>1650.720947</ele><time>2006-01-15T12:48:21Z</time></trkpt>
<trkpt lat="46.13951873" lon="7.47645110"><ele>1652.162842</ele><time>2006-01-15T12:48:36Z</time></trkpt>
<trkpt lat="46.13944656" lon="7.47657188"><ele>1656.969482</ele><time>2006-01-15T12:48:51Z</time></trkpt>
<trkpt lat="46.13934640" lon="7.47667557"><ele>1654.566162</ele><time>2006-01-15T12:49:05Z</time></trkpt>
<trkpt lat="46.13918639" lon="7.47679995"><ele>1656.969482</ele><time>2006-01-15T12:49:28Z</time></trkpt>
<trkpt lat="46.13911632" lon="7.47694722"><ele>1660.334229</ele><time>2006-01-15T12:49:42Z</time></trkpt>
<trkpt lat="46.13902118" lon="7.47703096"><ele>1667.063477</ele><time>2006-01-15T12:49:54Z</time></trkpt>
<trkpt lat="46.13897810" lon="7.47705183"><ele>1668.024658</ele><time>2006-01-15T12:50:04Z</time></trkpt>
<trkpt lat="46.13897935" lon="7.47706315"><ele>1667.543945</ele><time>2006-01-15T12:50:21Z</time></trkpt>
<trkpt lat="46.13894289" lon="7.47712760"><ele>1668.986084</ele><time>2006-01-15T12:50:31Z</time></trkpt>
<trkpt lat="46.13885891" lon="7.47727605"><ele>1669.947266</ele><time>2006-01-15T12:50:46Z</time></trkpt>
<trkpt lat="46.13880459" lon="7.47732081"><ele>1671.869873</ele><time>2006-01-15T12:50:52Z</time></trkpt>
<trkpt lat="46.13869554" lon="7.47743472"><ele>1672.831299</ele><time>2006-01-15T12:51:06Z</time></trkpt>
<trkpt lat="46.13858063" lon="7.47751962"><ele>1673.312012</ele><time>2006-01-15T12:51:20Z</time></trkpt>
<trkpt lat="46.13848926" lon="7.47764158"><ele>1671.869873</ele><time>2006-01-15T12:51:37Z</time></trkpt>
<trkpt lat="46.13827083" lon="7.47779430"><ele>1679.079834</ele><time>2006-01-15T12:52:04Z</time></trkpt>
<trkpt lat="46.13825901" lon="7.47778810"><ele>1681.002686</ele><time>2006-01-15T12:52:12Z</time></trkpt>
<trkpt lat="46.13824552" lon="7.47778776"><ele>1687.250977</ele><time>2006-01-15T12:52:44Z</time></trkpt>
<trkpt lat="46.13824166" lon="7.47779380"><ele>1688.693115</ele><time>2006-01-15T12:53:00Z</time></trkpt>
<trkpt lat="46.13824979" lon="7.47778734"><ele>1680.04126</ele><time>2006-01-15T12:53:19Z</time></trkpt>
<trkpt lat="46.13825239" lon="7.47778349"><ele>1684.8479</ele><time>2006-01-15T12:53:36Z</time></trkpt>
<trkpt lat="46.13822524" lon="7.47782380"><ele>1687.731689</ele><time>2006-01-15T12:53:52Z</time></trkpt>
<trkpt lat="46.13815374" lon="7.47793612"><ele>1693.499756</ele><time>2006-01-15T12:54:06Z</time></trkpt>
<trkpt lat="46.13819095" lon="7.47798230"><ele>1693.980469</ele><time>2006-01-15T12:54:15Z</time></trkpt>
<trkpt lat="46.13826991" lon="7.47791986"><ele>1696.864258</ele><time>2006-01-15T12:54:26Z</time></trkpt>
<trkpt lat="46.13832934" lon="7.47791642"><ele>1696.864258</ele><time>2006-01-15T12:54:34Z</time></trkpt>
<trkpt lat="46.13839413" lon="7.47792028"><ele>1697.825684</ele><time>2006-01-15T12:54:41Z</time></trkpt>
<trkpt lat="46.13847887" lon="7.47794216"><ele>1697.825684</ele><time>2006-01-15T12:54:50Z</time></trkpt>
<trkpt lat="46.13859052" lon="7.47789949"><ele>1699.748291</ele><time>2006-01-15T12:55:03Z</time></trkpt>
<trkpt lat="46.13870543" lon="7.47787627"><ele>1703.112793</ele><time>2006-01-15T12:55:15Z</time></trkpt>
<trkpt lat="46.13885597" lon="7.47781961"><ele>1703.593506</ele><time>2006-01-15T12:55:32Z</time></trkpt>
<trkpt lat="46.13902965" lon="7.47783772"><ele>1705.516113</ele><time>2006-01-15T12:55:50Z</time></trkpt>
<trkpt lat="46.13913182" lon="7.47779799"><ele>1706.958008</ele><time>2006-01-15T12:56:00Z</time></trkpt>
<trkpt lat="46.13926032" lon="7.47784811"><ele>1714.167969</ele><time>2006-01-15T12:56:29Z</time></trkpt>
<trkpt lat="46.13929091" lon="7.47799437"><ele>1714.167969</ele><time>2006-01-15T12:56:43Z</time></trkpt>
<trkpt lat="46.13916443" lon="7.47803553"><ele>1714.167969</ele><time>2006-01-15T12:57:04Z</time></trkpt>
<trkpt lat="46.13884315" lon="7.47804827"><ele>1712.726074</ele><time>2006-01-15T12:57:34Z</time></trkpt>
<trkpt lat="46.13870543" lon="7.47813108"><ele>1714.167969</ele><time>2006-01-15T12:57:50Z</time></trkpt>
<trkpt lat="46.13865263" lon="7.47821356"><ele>1714.648682</ele><time>2006-01-15T12:58:01Z</time></trkpt>
<trkpt lat="46.13856973" lon="7.47832831"><ele>1716.571289</ele><time>2006-01-15T12:58:14Z</time></trkpt>
<trkpt lat="46.13848826" lon="7.47842906"><ele>1717.532471</ele><time>2006-01-15T12:58:29Z</time></trkpt>
<trkpt lat="46.13841911" lon="7.47852822"><ele>1713.687256</ele><time>2006-01-15T12:58:41Z</time></trkpt>
<trkpt lat="46.13834342" lon="7.47880507"><ele>1724.742676</ele><time>2006-01-15T12:59:08Z</time></trkpt>
<trkpt lat="46.13833814" lon="7.47887908"><ele>1727.145996</ele><time>2006-01-15T12:59:15Z</time></trkpt>
<trkpt lat="46.13836328" lon="7.47895360"><ele>1729.068359</ele><time>2006-01-15T12:59:21Z</time></trkpt>
<trkpt lat="46.13836312" lon="7.47908251"><ele>1732.433105</ele><time>2006-01-15T12:59:34Z</time></trkpt>
<trkpt lat="46.13839597" lon="7.47923305"><ele>1734.836426</ele><time>2006-01-15T12:59:53Z</time></trkpt>
<trkpt lat="46.13834225" lon="7.47925409"><ele>1743.488281</ele><time>2006-01-15T13:00:07Z</time></trkpt>
<trkpt lat="46.13836379" lon="7.47925686"><ele>1745.410889</ele><time>2006-01-15T13:00:20Z</time></trkpt>
<trkpt lat="46.13840234" lon="7.47925459"><ele>1752.620605</ele><time>2006-01-15T13:00:33Z</time></trkpt>
<trkpt lat="46.13842087" lon="7.47924655"><ele>1749.256104</ele><time>2006-01-15T13:00:53Z</time></trkpt>
<trkpt lat="46.13842590" lon="7.47923926"><ele>1736.758789</ele><time>2006-01-15T13:01:09Z</time></trkpt>
<trkpt lat="46.13837695" lon="7.47926080"><ele>1738.200928</ele><time>2006-01-15T13:01:18Z</time></trkpt>
<trkpt lat="46.13825323" lon="7.47935006"><ele>1743.007568</ele><time>2006-01-15T13:01:31Z</time></trkpt>
<trkpt lat="46.13809464" lon="7.47930489"><ele>1743.007568</ele><time>2006-01-15T13:01:44Z</time></trkpt>
<trkpt lat="46.13797227" lon="7.47929349"><ele>1749.256104</ele><time>2006-01-15T13:01:58Z</time></trkpt>
<trkpt lat="46.13792474" lon="7.47930103"><ele>1752.620605</ele><time>2006-01-15T13:02:06Z</time></trkpt>
<trkpt lat="46.13791980" lon="7.47929240"><ele>1754.062744</ele><time>2006-01-15T13:02:14Z</time></trkpt>
<trkpt lat="46.13791946" lon="7.47930430"><ele>1755.023926</ele><time>2006-01-15T13:02:22Z</time></trkpt>
<trkpt lat="46.13777932" lon="7.47936004"><ele>1748.775391</ele><time>2006-01-15T13:02:37Z</time></trkpt>
<trkpt lat="46.13766692" lon="7.47938745"><ele>1744.449463</ele><time>2006-01-15T13:02:49Z</time></trkpt>
<trkpt lat="46.13760078" lon="7.47940119"><ele>1743.968994</ele><time>2006-01-15T13:02:56Z</time></trkpt>
<trkpt lat="46.13737741" lon="7.47943288"><ele>1746.852783</ele><time>2006-01-15T13:03:16Z</time></trkpt>
<trkpt lat="46.13722846" lon="7.47940136"><ele>1747.333496</ele><time>2006-01-15T13:03:30Z</time></trkpt>
<trkpt lat="46.13702235" lon="7.47939206"><ele>1747.333496</ele><time>2006-01-15T13:03:47Z</time></trkpt>
<trkpt lat="46.13683694" lon="7.47945651"><ele>1749.736816</ele><time>2006-01-15T13:04:03Z</time></trkpt>
<trkpt lat="46.13675304" lon="7.47954872"><ele>1746.852783</ele><time>2006-01-15T13:04:14Z</time></trkpt>
<trkpt lat="46.13664743" lon="7.47961602"><ele>1747.333496</ele><time>2006-01-15T13:04:25Z</time></trkpt>
<trkpt lat="46.13643629" lon="7.47971920"><ele>1743.007568</ele><time>2006-01-15T13:04:43Z</time></trkpt>
<trkpt lat="46.13623738" lon="7.47970311"><ele>1740.604248</ele><time>2006-01-15T13:04:57Z</time></trkpt>
<trkpt lat="46.13606304" lon="7.47973387"><ele>1738.200928</ele><time>2006-01-15T13:05:11Z</time></trkpt>
<trkpt lat="46.13585676" lon="7.47982666"><ele>1740.123779</ele><time>2006-01-15T13:05:27Z</time></trkpt>
<trkpt lat="46.13568217" lon="7.47982565"><ele>1738.681641</ele><time>2006-01-15T13:05:41Z</time></trkpt>
<trkpt lat="46.13540330" lon="7.47980855"><ele>1749.736816</ele><time>2006-01-15T13:06:00Z</time></trkpt>
<trkpt lat="46.13502226" lon="7.47987301"><ele>1742.5271</ele><time>2006-01-15T13:06:31Z</time></trkpt>
<trkpt lat="46.13489117" lon="7.48003788"><ele>1742.046387</ele><time>2006-01-15T13:06:44Z</time></trkpt>
<trkpt lat="46.13475387" lon="7.48019102"><ele>1738.200928</ele><time>2006-01-15T13:06:58Z</time></trkpt>
<trkpt lat="46.13460157" lon="7.48041079"><ele>1738.681641</ele><time>2006-01-15T13:07:17Z</time></trkpt>
<trkpt lat="46.13446419" lon="7.48055815"><ele>1737.720215</ele><time>2006-01-15T13:07:31Z</time></trkpt>
<trkpt lat="46.13433997" lon="7.48070030"><ele>1738.200928</ele><time>2006-01-15T13:07:44Z</time></trkpt>
<trkpt lat="46.13426881" lon="7.48094170"><ele>1740.123779</ele><time>2006-01-15T13:08:03Z</time></trkpt>
<trkpt lat="46.13416093" lon="7.48111119"><ele>1741.084961</ele><time>2006-01-15T13:08:18Z</time></trkpt>
<trkpt lat="46.13404904" lon="7.48118662"><ele>1742.5271</ele><time>2006-01-15T13:08:31Z</time></trkpt>
<trkpt lat="46.13399019" lon="7.48126474"><ele>1743.007568</ele><time>2006-01-15T13:08:42Z</time></trkpt>
<trkpt lat="46.13400998" lon="7.48134119"><ele>1744.449463</ele><time>2006-01-15T13:08:51Z</time></trkpt>
<trkpt lat="46.13398064" lon="7.48151100"><ele>1747.333496</ele><time>2006-01-15T13:09:11Z</time></trkpt>
<trkpt lat="46.13387763" lon="7.48160547"><ele>1748.294678</ele><time>2006-01-15T13:09:27Z</time></trkpt>
<trkpt lat="46.13380839" lon="7.48159063"><ele>1751.178711</ele><time>2006-01-15T13:09:38Z</time></trkpt>
<trkpt lat="46.13372809" lon="7.48157328"><ele>1755.023926</ele><time>2006-01-15T13:09:52Z</time></trkpt>
<trkpt lat="46.13363623" lon="7.48160262"><ele>1756.466064</ele><time>2006-01-15T13:10:01Z</time></trkpt>
<trkpt lat="46.13355417" lon="7.48174620"><ele>1752.620605</ele><time>2006-01-15T13:10:17Z</time></trkpt>
<trkpt lat="46.13343934" lon="7.48179515"><ele>1755.985107</ele><time>2006-01-15T13:10:33Z</time></trkpt>
<trkpt lat="46.13324001" lon="7.48180185"><ele>1757.908203</ele><time>2006-01-15T13:10:50Z</time></trkpt>
<trkpt lat="46.13309819" lon="7.48180336"><ele>1760.311279</ele><time>2006-01-15T13:11:03Z</time></trkpt>
<trkpt lat="46.13304413" lon="7.48182138"><ele>1760.791992</ele><time>2006-01-15T13:11:11Z</time></trkpt>
<trkpt lat="46.13303918" lon="7.48180378"><ele>1763.195313</ele><time>2006-01-15T13:11:24Z</time></trkpt>
<trkpt lat="46.13300893" lon="7.48181828"><ele>1780.979736</ele><time>2006-01-15T13:11:40Z</time></trkpt>
<trkpt lat="46.13300297" lon="7.48183136"><ele>1779.537598</ele><time>2006-01-15T13:11:55Z</time></trkpt>
<trkpt lat="46.13300599" lon="7.48184628"><ele>1783.382813</ele><time>2006-01-15T13:12:18Z</time></trkpt>
<trkpt lat="46.13300867" lon="7.48184888"><ele>1771.366211</ele><time>2006-01-15T13:12:33Z</time></trkpt>
<trkpt lat="46.13297037" lon="7.48186279"><ele>1765.598633</ele><time>2006-01-15T13:12:44Z</time></trkpt>
<trkpt lat="46.13290968" lon="7.48190378"><ele>1764.156494</ele><time>2006-01-15T13:12:53Z</time></trkpt>
<trkpt lat="46.13285244" lon="7.48196756"><ele>1763.675781</ele><time>2006-01-15T13:13:04Z</time></trkpt>
<trkpt lat="46.13279963" lon="7.48201501"><ele>1763.675781</ele><time>2006-01-15T13:13:15Z</time></trkpt>
<trkpt lat="46.13272201" lon="7.48205557"><ele>1766.079102</ele><time>2006-01-15T13:13:27Z</time></trkpt>
<trkpt lat="46.13263568" lon="7.48203755"><ele>1765.598633</ele><time>2006-01-15T13:13:38Z</time></trkpt>
<trkpt lat="46.13255982" lon="7.48200185"><ele>1766.559814</ele><time>2006-01-15T13:13:49Z</time></trkpt>
<trkpt lat="46.13256594" lon="7.48200377"><ele>1770.885742</ele><time>2006-01-15T13:14:00Z</time></trkpt>
<trkpt lat="46.13248615" lon="7.48200595"><ele>1771.846924</ele><time>2006-01-15T13:14:10Z</time></trkpt>
<trkpt lat="46.13251272" lon="7.48200411"><ele>1776.653809</ele><time>2006-01-15T13:14:21Z</time></trkpt>
<trkpt lat="46.13244474" lon="7.48200419"><ele>1776.173096</ele><time>2006-01-15T13:14:32Z</time></trkpt>
<trkpt lat="46.13234743" lon="7.48198919"><ele>1774.731201</ele><time>2006-01-15T13:14:40Z</time></trkpt>
<trkpt lat="46.13215229" lon="7.48194795"><ele>1774.731201</ele><time>2006-01-15T13:14:54Z</time></trkpt>
<trkpt lat="46.13197510" lon="7.48196815"><ele>1774.250488</ele><time>2006-01-15T13:15:07Z</time></trkpt>
<trkpt lat="46.13181300" lon="7.48201970"><ele>1773.769775</ele><time>2006-01-15T13:15:19Z</time></trkpt>
<trkpt lat="46.13167888" lon="7.48206220"><ele>1771.366211</ele><time>2006-01-15T13:15:30Z</time></trkpt>
<trkpt lat="46.13152952" lon="7.48211014"><ele>1771.366211</ele><time>2006-01-15T13:15:42Z</time></trkpt>
<trkpt lat="46.13142768" lon="7.48217619"><ele>1769.924316</ele><time>2006-01-15T13:15:51Z</time></trkpt>
<trkpt lat="46.13132500" lon="7.48220528"><ele>1768.963135</ele><time>2006-01-15T13:16:00Z</time></trkpt>
<trkpt lat="46.13123037" lon="7.48225188"><ele>1768.963135</ele><time>2006-01-15T13:16:09Z</time></trkpt>
<trkpt lat="46.13110741" lon="7.48227459"><ele>1768.482422</ele><time>2006-01-15T13:16:18Z</time></trkpt>
<trkpt lat="46.13098704" lon="7.48227376"><ele>1768.963135</ele><time>2006-01-15T13:16:28Z</time></trkpt>
<trkpt lat="46.13089853" lon="7.48222791"><ele>1768.963135</ele><time>2006-01-15T13:16:37Z</time></trkpt>
<trkpt lat="46.13083491" lon="7.48222296"><ele>1769.924316</ele><time>2006-01-15T13:16:44Z</time></trkpt>
<trkpt lat="46.13076895" lon="7.48226261"><ele>1768.001709</ele><time>2006-01-15T13:16:52Z</time></trkpt>
<trkpt lat="46.13075914" lon="7.48227141"><ele>1769.443848</ele><time>2006-01-15T13:17:00Z</time></trkpt>
<trkpt lat="46.13074950" lon="7.48234190"><ele>1769.443848</ele><time>2006-01-15T13:17:07Z</time></trkpt>
<trkpt lat="46.13074330" lon="7.48236503"><ele>1769.443848</ele><time>2006-01-15T13:17:15Z</time></trkpt>
<trkpt lat="46.13072813" lon="7.48239102"><ele>1768.482422</ele><time>2006-01-15T13:17:25Z</time></trkpt>
<trkpt lat="46.13072653" lon="7.48241130"><ele>1763.195313</ele><time>2006-01-15T13:17:46Z</time></trkpt>
<trkpt lat="46.13073072" lon="7.48240451"><ele>1764.637207</ele><time>2006-01-15T13:18:00Z</time></trkpt>
<trkpt lat="46.13072863" lon="7.48239236"><ele>1764.637207</ele><time>2006-01-15T13:18:12Z</time></trkpt>
<trkpt lat="46.13073357" lon="7.48237937"><ele>1763.195313</ele><time>2006-01-15T13:18:24Z</time></trkpt>
<trkpt lat="46.13074229" lon="7.48237643"><ele>1764.637207</ele><time>2006-01-15T13:18:38Z</time></trkpt>
<trkpt lat="46.13073919" lon="7.48237811"><ele>1765.11792</ele><time>2006-01-15T13:18:52Z</time></trkpt>
<trkpt lat="46.13073768" lon="7.48238331"><ele>1764.156494</ele><time>2006-01-15T13:19:04Z</time></trkpt>
<trkpt lat="46.13071673" lon="7.48240183"><ele>1757.42749</ele><time>2006-01-15T13:19:17Z</time></trkpt>
<trkpt lat="46.13076551" lon="7.48239848"><ele>1754.543213</ele><time>2006-01-15T13:19:41Z</time></trkpt>
<trkpt lat="46.13076107" lon="7.48238901"><ele>1757.908203</ele><time>2006-01-15T13:20:08Z</time></trkpt>
<trkpt lat="46.13076023" lon="7.48238876"><ele>1760.311279</ele><time>2006-01-15T13:20:40Z</time></trkpt>
<trkpt lat="46.13075704" lon="7.48238892"><ele>1758.869385</ele><time>2006-01-15T13:21:20Z</time></trkpt>
<trkpt lat="46.13075604" lon="7.48239018"><ele>1756.946777</ele><time>2006-01-15T13:21:57Z</time></trkpt>
<trkpt lat="46.13069099" lon="7.48241323"><ele>1759.830566</ele><time>2006-01-15T13:22:29Z</time></trkpt>
<trkpt lat="46.13071488" lon="7.48240317"><ele>1760.791992</ele><time>2006-01-15T13:23:09Z</time></trkpt>
<trkpt lat="46.13072922" lon="7.48240150"><ele>1760.791992</ele><time>2006-01-15T13:23:47Z</time></trkpt>
<trkpt lat="46.13073274" lon="7.48240250"><ele>1763.195313</ele><time>2006-01-15T13:24:12Z</time></trkpt>
<trkpt lat="46.13073659" lon="7.48239052"><ele>1760.791992</ele><time>2006-01-15T13:25:04Z</time></trkpt>
<trkpt lat="46.13074237" lon="7.48238901"><ele>1763.195313</ele><time>2006-01-15T13:25:33Z</time></trkpt>
<trkpt lat="46.13074497" lon="7.48238825"><ele>1761.753418</ele><time>2006-01-15T13:25:51Z</time></trkpt>
<trkpt lat="46.13074179" lon="7.48240158"><ele>1763.195313</ele><time>2006-01-15T13:26:40Z</time></trkpt>
<trkpt lat="46.13074036" lon="7.48239068"><ele>1764.156494</ele><time>2006-01-15T13:26:49Z</time></trkpt>
<trkpt lat="46.13073299" lon="7.48238968"><ele>1765.11792</ele><time>2006-01-15T13:27:03Z</time></trkpt>
<trkpt lat="46.13073257" lon="7.48238808"><ele>1763.675781</ele><time>2006-01-15T13:27:14Z</time></trkpt>
<trkpt lat="46.13071119" lon="7.48238658"><ele>1763.195313</ele><time>2006-01-15T13:27:30Z</time></trkpt>
<trkpt lat="46.13072226" lon="7.48238599"><ele>1762.233887</ele><time>2006-01-15T13:27:44Z</time></trkpt>
<trkpt lat="46.13072804" lon="7.48237216"><ele>1763.195313</ele><time>2006-01-15T13:28:22Z</time></trkpt>
<trkpt lat="46.13073257" lon="7.48236529"><ele>1761.272705</ele><time>2006-01-15T13:28:51Z</time></trkpt>
<trkpt lat="46.13072469" lon="7.48239018"><ele>1762.233887</ele><time>2006-01-15T13:29:18Z</time></trkpt>
<trkpt lat="46.13072477" lon="7.48239085"><ele>1764.156494</ele><time>2006-01-15T13:29:29Z</time></trkpt>
<trkpt lat="46.13072955" lon="7.48238775"><ele>1765.11792</ele><time>2006-01-15T13:29:36Z</time></trkpt>
<trkpt lat="46.13073123" lon="7.48238616"><ele>1765.11792</ele><time>2006-01-15T13:29:45Z</time></trkpt>
<trkpt lat="46.13073592" lon="7.48237828"><ele>1764.637207</ele><time>2006-01-15T13:29:53Z</time></trkpt>
<trkpt lat="46.13074891" lon="7.48232296"><ele>1765.598633</ele><time>2006-01-15T13:30:01Z</time></trkpt>
<trkpt lat="46.13079996" lon="7.48224710"><ele>1766.559814</ele><time>2006-01-15T13:30:10Z</time></trkpt>
<trkpt lat="46.13085578" lon="7.48216881"><ele>1766.079102</ele><time>2006-01-15T13:30:19Z</time></trkpt>
<trkpt lat="46.13087925" lon="7.48207628"><ele>1765.598633</ele><time>2006-01-15T13:30:26Z</time></trkpt>
<trkpt lat="46.13083676" lon="7.48194393"><ele>1765.11792</ele><time>2006-01-15T13:30:37Z</time></trkpt>
<trkpt lat="46.13080901" lon="7.48191920"><ele>1766.559814</ele><time>2006-01-15T13:30:44Z</time></trkpt>
<trkpt lat="46.13083282" lon="7.48189414"><ele>1765.11792</ele><time>2006-01-15T13:31:06Z</time></trkpt>
<trkpt lat="46.13084639" lon="7.48193739"><ele>1764.637207</ele><time>2006-01-15T13:31:12Z</time></trkpt>
<trkpt lat="46.13088378" lon="7.48203009"><ele>1765.598633</ele><time>2006-01-15T13:31:20Z</time></trkpt>
<trkpt lat="46.13088596" lon="7.48206371"><ele>1765.598633</ele><time>2006-01-15T13:31:22Z</time></trkpt>
<trkpt lat="46.13089199" lon="7.48214224"><ele>1765.11792</ele><time>2006-01-15T13:31:27Z</time></trkpt>
<trkpt lat="46.13098134" lon="7.48225171"><ele>1765.11792</ele><time>2006-01-15T13:31:38Z</time></trkpt>
<trkpt lat="46.13110783" lon="7.48224936"><ele>1766.079102</ele><time>2006-01-15T13:31:49Z</time></trkpt>
<trkpt lat="46.13121704" lon="7.48223981"><ele>1767.520996</ele><time>2006-01-15T13:31:59Z</time></trkpt>
<trkpt lat="46.13131419" lon="7.48219446"><ele>1767.040527</ele><time>2006-01-15T13:32:08Z</time></trkpt>
<trkpt lat="46.13147856" lon="7.48212640"><ele>1765.598633</ele><time>2006-01-15T13:32:20Z</time></trkpt>
<trkpt lat="46.13161971" lon="7.48204652"><ele>1765.11792</ele><time>2006-01-15T13:32:32Z</time></trkpt>
<trkpt lat="46.13174468" lon="7.48200897"><ele>1766.079102</ele><time>2006-01-15T13:32:43Z</time></trkpt>
<trkpt lat="46.13190939" lon="7.48196622"><ele>1766.079102</ele><time>2006-01-15T13:32:56Z</time></trkpt>
<trkpt lat="46.13201232" lon="7.48195415"><ele>1768.001709</ele><time>2006-01-15T13:33:05Z</time></trkpt>
<trkpt lat="46.13215615" lon="7.48193345"><ele>1768.482422</ele><time>2006-01-15T13:33:17Z</time></trkpt>
<trkpt lat="46.13220694" lon="7.48190520"><ele>1770.405029</ele><time>2006-01-15T13:33:22Z</time></trkpt>
<trkpt lat="46.13232572" lon="7.48194921"><ele>1770.885742</ele><time>2006-01-15T13:33:32Z</time></trkpt>
<trkpt lat="46.13239470" lon="7.48195860"><ele>1772.327881</ele><time>2006-01-15T13:33:39Z</time></trkpt>
<trkpt lat="46.13243124" lon="7.48197980"><ele>1771.366211</ele><time>2006-01-15T13:33:42Z</time></trkpt>
<trkpt lat="46.13250165" lon="7.48200067"><ele>1772.327881</ele><time>2006-01-15T13:33:50Z</time></trkpt>
<trkpt lat="46.13257508" lon="7.48208692"><ele>1770.885742</ele><time>2006-01-15T13:33:59Z</time></trkpt>
<trkpt lat="46.13258396" lon="7.48209598"><ele>1770.885742</ele><time>2006-01-15T13:34:00Z</time></trkpt>
<trkpt lat="46.13274230" lon="7.48222724"><ele>1773.769775</ele><time>2006-01-15T13:34:15Z</time></trkpt>
<trkpt lat="46.13287649" lon="7.48226990"><ele>1776.653809</ele><time>2006-01-15T13:34:28Z</time></trkpt>
<trkpt lat="46.13302141" lon="7.48222338"><ele>1776.173096</ele><time>2006-01-15T13:34:43Z</time></trkpt>
<trkpt lat="46.13313516" lon="7.48223185"><ele>1776.653809</ele><time>2006-01-15T13:34:54Z</time></trkpt>
<trkpt lat="46.13323918" lon="7.48222564"><ele>1783.863525</ele><time>2006-01-15T13:35:08Z</time></trkpt>
<trkpt lat="46.13337697" lon="7.48215800"><ele>1786.747314</ele><time>2006-01-15T13:35:24Z</time></trkpt>
<trkpt lat="46.13345183" lon="7.48222212"><ele>1785.786133</ele><time>2006-01-15T13:35:32Z</time></trkpt>
<trkpt lat="46.13347865" lon="7.48224878"><ele>1785.30542</ele><time>2006-01-15T13:35:34Z</time></trkpt>
<trkpt lat="46.13359968" lon="7.48228130"><ele>1787.228027</ele><time>2006-01-15T13:35:48Z</time></trkpt>
<trkpt lat="46.13375609" lon="7.48229027"><ele>1785.786133</ele><time>2006-01-15T13:36:02Z</time></trkpt>
<trkpt lat="46.13384033" lon="7.48210310"><ele>1789.631592</ele><time>2006-01-15T13:36:17Z</time></trkpt>
<trkpt lat="46.13399933" lon="7.48198257"><ele>1785.30542</ele><time>2006-01-15T13:36:34Z</time></trkpt>
<trkpt lat="46.13419949" lon="7.48182901"><ele>1778.576416</ele><time>2006-01-15T13:36:51Z</time></trkpt>
<trkpt lat="46.13421860" lon="7.48180621"><ele>1778.576416</ele><time>2006-01-15T13:36:53Z</time></trkpt>
<trkpt lat="46.13422028" lon="7.48174813"><ele>1778.576416</ele><time>2006-01-15T13:36:56Z</time></trkpt>
<trkpt lat="46.13422019" lon="7.48166112"><ele>1779.056885</ele><time>2006-01-15T13:37:10Z</time></trkpt>
<trkpt lat="46.13432178" lon="7.48152793"><ele>1779.056885</ele><time>2006-01-15T13:37:25Z</time></trkpt>
<trkpt lat="46.13445321" lon="7.48143003"><ele>1777.61499</ele><time>2006-01-15T13:37:37Z</time></trkpt>
<trkpt lat="46.13454508" lon="7.48134278"><ele>1775.692383</ele><time>2006-01-15T13:37:45Z</time></trkpt>
<trkpt lat="46.13467793" lon="7.48116215"><ele>1773.289307</ele><time>2006-01-15T13:38:02Z</time></trkpt>
<trkpt lat="46.13476460" lon="7.48106425"><ele>1773.769775</ele><time>2006-01-15T13:38:13Z</time></trkpt>
<trkpt lat="46.13487323" lon="7.48100080"><ele>1775.692383</ele><time>2006-01-15T13:38:27Z</time></trkpt>
<trkpt lat="46.13499912" lon="7.48100532"><ele>1775.692383</ele><time>2006-01-15T13:38:40Z</time></trkpt>
<trkpt lat="46.13511597" lon="7.48101354"><ele>1778.095703</ele><time>2006-01-15T13:38:53Z</time></trkpt>
<trkpt lat="46.13527690" lon="7.48097045"><ele>1780.979736</ele><time>2006-01-15T13:39:13Z</time></trkpt>
<trkpt lat="46.13536206" lon="7.48096299"><ele>1779.537598</ele><time>2006-01-15T13:39:23Z</time></trkpt>
<trkpt lat="46.13543163" lon="7.48093433"><ele>1782.9021</ele><time>2006-01-15T13:39:32Z</time></trkpt>
<trkpt lat="46.13551629" lon="7.48090055"><ele>1785.786133</ele><time>2006-01-15T13:39:44Z</time></trkpt>
<trkpt lat="46.13562701" lon="7.48095151"><ele>1787.228027</ele><time>2006-01-15T13:39:55Z</time></trkpt>
<trkpt lat="46.13577009" lon="7.48097364"><ele>1788.189697</ele><time>2006-01-15T13:40:10Z</time></trkpt>
<trkpt lat="46.13580546" lon="7.48094866"><ele>1791.073486</ele><time>2006-01-15T13:40:18Z</time></trkpt>
<trkpt lat="46.13587772" lon="7.48093248"><ele>1795.399414</ele><time>2006-01-15T13:40:29Z</time></trkpt>
<trkpt lat="46.13587897" lon="7.48091807"><ele>1796.36084</ele><time>2006-01-15T13:40:37Z</time></trkpt>
<trkpt lat="46.13589146" lon="7.48091002"><ele>1800.206055</ele><time>2006-01-15T13:40:49Z</time></trkpt>
<trkpt lat="46.13590353" lon="7.48090759"><ele>1798.283203</ele><time>2006-01-15T13:40:59Z</time></trkpt>
<trkpt lat="46.13590588" lon="7.48090357"><ele>1797.802734</ele><time>2006-01-15T13:41:07Z</time></trkpt>
<trkpt lat="46.13595944" lon="7.48089845"><ele>1797.322021</ele><time>2006-01-15T13:41:15Z</time></trkpt>
<trkpt lat="46.13603932" lon="7.48089124"><ele>1802.128418</ele><time>2006-01-15T13:41:28Z</time></trkpt>
<trkpt lat="46.13608492" lon="7.48091564"><ele>1799.725342</ele><time>2006-01-15T13:41:35Z</time></trkpt>
<trkpt lat="46.13615214" lon="7.48090692"><ele>1797.322021</ele><time>2006-01-15T13:41:46Z</time></trkpt>
<trkpt lat="46.13624752" lon="7.48084900"><ele>1798.283203</ele><time>2006-01-15T13:41:57Z</time></trkpt>
<trkpt lat="46.13637527" lon="7.48082226"><ele>1800.686523</ele><time>2006-01-15T13:42:09Z</time></trkpt>
<trkpt lat="46.13644282" lon="7.48083190"><ele>1800.686523</ele><time>2006-01-15T13:42:15Z</time></trkpt>
<trkpt lat="46.13660501" lon="7.48079728"><ele>1799.244629</ele><time>2006-01-15T13:42:31Z</time></trkpt>
<trkpt lat="46.13672571" lon="7.48071363"><ele>1801.647949</ele><time>2006-01-15T13:42:44Z</time></trkpt>
<trkpt lat="46.13681892" lon="7.48066560"><ele>1803.089844</ele><time>2006-01-15T13:43:21Z</time></trkpt>
<trkpt lat="46.13680978" lon="7.48064205"><ele>1802.609131</ele><time>2006-01-15T13:43:33Z</time></trkpt>
<trkpt lat="46.13692746" lon="7.48061372"><ele>1798.283203</ele><time>2006-01-15T13:43:47Z</time></trkpt>
<trkpt lat="46.13703232" lon="7.48057441"><ele>1794.918701</ele><time>2006-01-15T13:43:57Z</time></trkpt>
<trkpt lat="46.13720591" lon="7.48043753"><ele>1796.36084</ele><time>2006-01-15T13:44:12Z</time></trkpt>
<trkpt lat="46.13732460" lon="7.48037559"><ele>1794.918701</ele><time>2006-01-15T13:44:20Z</time></trkpt>
<trkpt lat="46.13739559" lon="7.48024592"><ele>1792.996094</ele><time>2006-01-15T13:44:31Z</time></trkpt>
<trkpt lat="46.13754806" lon="7.48017392"><ele>1790.112305</ele><time>2006-01-15T13:44:46Z</time></trkpt>
<trkpt lat="46.13770966" lon="7.48006554"><ele>1783.863525</ele><time>2006-01-15T13:45:00Z</time></trkpt>
<trkpt lat="46.13815986" lon="7.47990788"><ele>1777.134521</ele><time>2006-01-15T13:45:37Z</time></trkpt>
<trkpt lat="46.13829740" lon="7.47989983"><ele>1772.327881</ele><time>2006-01-15T13:45:49Z</time></trkpt>
<trkpt lat="46.13838818" lon="7.47987184"><ele>1771.846924</ele><time>2006-01-15T13:45:57Z</time></trkpt>
<trkpt lat="46.13847745" lon="7.47976321"><ele>1770.405029</ele><time>2006-01-15T13:46:10Z</time></trkpt>
<trkpt lat="46.13853629" lon="7.47967754"><ele>1768.963135</ele><time>2006-01-15T13:46:19Z</time></trkpt>
<trkpt lat="46.13858457" lon="7.47962524"><ele>1769.443848</ele><time>2006-01-15T13:46:27Z</time></trkpt>
<trkpt lat="46.13861759" lon="7.47955265"><ele>1770.405029</ele><time>2006-01-15T13:46:35Z</time></trkpt>
<trkpt lat="46.13869538" lon="7.47946640"><ele>1768.482422</ele><time>2006-01-15T13:46:43Z</time></trkpt>
<trkpt lat="46.13875573" lon="7.47932659"><ele>1768.001709</ele><time>2006-01-15T13:46:52Z</time></trkpt>
<trkpt lat="46.13882328" lon="7.47915099"><ele>1768.963135</ele><time>2006-01-15T13:47:04Z</time></trkpt>
<trkpt lat="46.13887031" lon="7.47902929"><ele>1770.885742</ele><time>2006-01-15T13:47:10Z</time></trkpt>
<trkpt lat="46.13892219" lon="7.47894715"><ele>1770.405029</ele><time>2006-01-15T13:47:20Z</time></trkpt>
<trkpt lat="46.13896142" lon="7.47887808"><ele>1768.963135</ele><time>2006-01-15T13:47:25Z</time></trkpt>
<trkpt lat="46.13924892" lon="7.47859536"><ele>1759.830566</ele><time>2006-01-15T13:47:51Z</time></trkpt>
<trkpt lat="46.13944019" lon="7.47843442"><ele>1759.830566</ele><time>2006-01-15T13:48:08Z</time></trkpt>
<trkpt lat="46.13973632" lon="7.47830928"><ele>1758.869385</ele><time>2006-01-15T13:48:32Z</time></trkpt>
<trkpt lat="46.13994344" lon="7.47822513"><ele>1756.946777</ele><time>2006-01-15T13:48:47Z</time></trkpt>
<trkpt lat="46.14015953" lon="7.47814684"><ele>1751.659424</ele><time>2006-01-15T13:49:03Z</time></trkpt>
<trkpt lat="46.14030940" lon="7.47806445"><ele>1754.543213</ele><time>2006-01-15T13:49:16Z</time></trkpt>
<trkpt lat="46.14032499" lon="7.47808004"><ele>1754.062744</ele><time>2006-01-15T13:49:18Z</time></trkpt>
<trkpt lat="46.14047318" lon="7.47805053"><ele>1755.504639</ele><time>2006-01-15T13:49:33Z</time></trkpt>
<trkpt lat="46.14065071" lon="7.47807140"><ele>1754.543213</ele><time>2006-01-15T13:49:47Z</time></trkpt>
<trkpt lat="46.14076914" lon="7.47806537"><ele>1755.023926</ele><time>2006-01-15T13:49:57Z</time></trkpt>
<trkpt lat="46.14091700" lon="7.47789170"><ele>1754.062744</ele><time>2006-01-15T13:50:11Z</time></trkpt>
<trkpt lat="46.14131212" lon="7.47763219"><ele>1749.736816</ele><time>2006-01-15T13:50:43Z</time></trkpt>
<trkpt lat="46.14136409" lon="7.47761761"><ele>1748.775391</ele><time>2006-01-15T13:50:47Z</time></trkpt>
<trkpt lat="46.14143726" lon="7.47745098"><ele>1750.697998</ele><time>2006-01-15T13:51:01Z</time></trkpt>
<trkpt lat="46.14154397" lon="7.47731770"><ele>1754.062744</ele><time>2006-01-15T13:51:15Z</time></trkpt>
<trkpt lat="46.14162116" lon="7.47725811"><ele>1756.466064</ele><time>2006-01-15T13:51:24Z</time></trkpt>
<trkpt lat="46.14169819" lon="7.47721377"><ele>1758.869385</ele><time>2006-01-15T13:51:33Z</time></trkpt>
<trkpt lat="46.14175569" lon="7.47714160"><ele>1759.830566</ele><time>2006-01-15T13:51:43Z</time></trkpt>
<trkpt lat="46.14178671" lon="7.47706977"><ele>1761.272705</ele><time>2006-01-15T13:51:51Z</time></trkpt>
<trkpt lat="46.14184069" lon="7.47700439"><ele>1763.195313</ele><time>2006-01-15T13:51:59Z</time></trkpt>
<trkpt lat="46.14191160" lon="7.47698947"><ele>1763.195313</ele><time>2006-01-15T13:52:08Z</time></trkpt>
<trkpt lat="46.14192417" lon="7.47700506"><ele>1759.830566</ele><time>2006-01-15T13:52:20Z</time></trkpt>
<trkpt lat="46.14192652" lon="7.47700196"><ele>1764.156494</ele><time>2006-01-15T13:52:43Z</time></trkpt>
<trkpt lat="46.14192777" lon="7.47696851"><ele>1766.559814</ele><time>2006-01-15T13:53:03Z</time></trkpt>
<trkpt lat="46.14197220" lon="7.47696684"><ele>1765.11792</ele><time>2006-01-15T13:53:12Z</time></trkpt>
<trkpt lat="46.14204906" lon="7.47692501"><ele>1764.156494</ele><time>2006-01-15T13:53:19Z</time></trkpt>
<trkpt lat="46.14213397" lon="7.47687975"><ele>1762.7146</ele><time>2006-01-15T13:53:27Z</time></trkpt>
<trkpt lat="46.14215844" lon="7.47690129"><ele>1762.233887</ele><time>2006-01-15T13:53:29Z</time></trkpt>
<trkpt lat="46.14219876" lon="7.47688428"><ele>1761.272705</ele><time>2006-01-15T13:53:33Z</time></trkpt>
<trkpt lat="46.14235005" lon="7.47690783"><ele>1758.388672</ele><time>2006-01-15T13:53:45Z</time></trkpt>
<trkpt lat="46.14259631" lon="7.47701042"><ele>1753.101318</ele><time>2006-01-15T13:54:03Z</time></trkpt>
<trkpt lat="46.14274425" lon="7.47674405"><ele>1754.062744</ele><time>2006-01-15T13:54:18Z</time></trkpt>
<trkpt lat="46.14293880" lon="7.47660331"><ele>1751.178711</ele><time>2006-01-15T13:54:35Z</time></trkpt>
<trkpt lat="46.14296378" lon="7.47659116"><ele>1750.217529</ele><time>2006-01-15T13:54:37Z</time></trkpt>
<trkpt lat="46.14316721" lon="7.47658898"><ele>1748.775391</ele><time>2006-01-15T13:54:52Z</time></trkpt>
<trkpt lat="46.14336359" lon="7.47652796"><ele>1745.891602</ele><time>2006-01-15T13:55:09Z</time></trkpt>
<trkpt lat="46.14341917" lon="7.47653869"><ele>1744.930176</ele><time>2006-01-15T13:55:13Z</time></trkpt>
<trkpt lat="46.14384857" lon="7.47634230"><ele>1739.642822</ele><time>2006-01-15T13:55:45Z</time></trkpt>
<trkpt lat="46.14397363" lon="7.47620643"><ele>1737.239502</ele><time>2006-01-15T13:55:57Z</time></trkpt>
<trkpt lat="46.14416532" lon="7.47618506"><ele>1732.913574</ele><time>2006-01-15T13:56:10Z</time></trkpt>
<trkpt lat="46.14434478" lon="7.47608934"><ele>1726.665283</ele><time>2006-01-15T13:56:25Z</time></trkpt>
<trkpt lat="46.14455600" lon="7.47600552"><ele>1722.339111</ele><time>2006-01-15T13:56:40Z</time></trkpt>
<trkpt lat="46.14471710" lon="7.47600543"><ele>1718.974609</ele><time>2006-01-15T13:56:51Z</time></trkpt>
<trkpt lat="46.14484157" lon="7.47593930"><ele>1718.013184</ele><time>2006-01-15T13:57:01Z</time></trkpt>
<trkpt lat="46.14495641" lon="7.47581148"><ele>1718.013184</ele><time>2006-01-15T13:57:12Z</time></trkpt>
<trkpt lat="46.14507199" lon="7.47572229"><ele>1718.013184</ele><time>2006-01-15T13:57:22Z</time></trkpt>
<trkpt lat="46.14520208" lon="7.47566152"><ele>1718.493896</ele><time>2006-01-15T13:57:33Z</time></trkpt>
<trkpt lat="46.14530023" lon="7.47560126"><ele>1719.935791</ele><time>2006-01-15T13:57:42Z</time></trkpt>
<trkpt lat="46.14542202" lon="7.47558449"><ele>1719.455322</ele><time>2006-01-15T13:57:52Z</time></trkpt>
<trkpt lat="46.14553484" lon="7.47555457"><ele>1718.974609</ele><time>2006-01-15T13:58:02Z</time></trkpt>
<trkpt lat="46.14567775" lon="7.47554502"><ele>1718.013184</ele><time>2006-01-15T13:58:13Z</time></trkpt>
<trkpt lat="46.14581396" lon="7.47556672"><ele>1717.532471</ele><time>2006-01-15T13:58:23Z</time></trkpt>
<trkpt lat="46.14605829" lon="7.47560277"><ele>1718.493896</ele><time>2006-01-15T13:58:40Z</time></trkpt>
<trkpt lat="46.14609802" lon="7.47561308"><ele>1717.532471</ele><time>2006-01-15T13:58:44Z</time></trkpt>
<trkpt lat="46.14624244" lon="7.47567695"><ele>1719.455322</ele><time>2006-01-15T13:58:59Z</time></trkpt>
<trkpt lat="46.14629064" lon="7.47570662"><ele>1718.974609</ele><time>2006-01-15T13:59:04Z</time></trkpt>
<trkpt lat="46.14645316" lon="7.47579739"><ele>1718.013184</ele><time>2006-01-15T13:59:17Z</time></trkpt>
<trkpt lat="46.14655383" lon="7.47597844"><ele>1716.090576</ele><time>2006-01-15T13:59:28Z</time></trkpt>
<trkpt lat="46.14667185" lon="7.47605472"><ele>1716.571289</ele><time>2006-01-15T13:59:38Z</time></trkpt>
<trkpt lat="46.14673387" lon="7.47616234"><ele>1716.090576</ele><time>2006-01-15T13:59:47Z</time></trkpt>
<trkpt lat="46.14679338" lon="7.47630651"><ele>1714.648682</ele><time>2006-01-15T13:59:56Z</time></trkpt>
<trkpt lat="46.14684041" lon="7.47649569"><ele>1712.726074</ele><time>2006-01-15T14:00:07Z</time></trkpt>
<trkpt lat="46.14691132" lon="7.47660600"><ele>1711.764893</ele><time>2006-01-15T14:00:15Z</time></trkpt>
<trkpt lat="46.14701693" lon="7.47669971"><ele>1709.361572</ele><time>2006-01-15T14:00:25Z</time></trkpt>
<trkpt lat="46.14715347" lon="7.47684119"><ele>1709.361572</ele><time>2006-01-15T14:00:37Z</time></trkpt>
<trkpt lat="46.14717141" lon="7.47695259"><ele>1704.554688</ele><time>2006-01-15T14:00:45Z</time></trkpt>
<trkpt lat="46.14718574" lon="7.47701671"><ele>1702.151367</ele><time>2006-01-15T14:00:50Z</time></trkpt>
<trkpt lat="46.14737031" lon="7.47728183"><ele>1699.748291</ele><time>2006-01-15T14:01:08Z</time></trkpt>
<trkpt lat="46.14745614" lon="7.47743505"><ele>1699.748291</ele><time>2006-01-15T14:01:17Z</time></trkpt>
<trkpt lat="46.14764272" lon="7.47761057"><ele>1704.074219</ele><time>2006-01-15T14:01:31Z</time></trkpt>
<trkpt lat="46.14783743" lon="7.47771802"><ele>1705.516113</ele><time>2006-01-15T14:01:44Z</time></trkpt>
<trkpt lat="46.14789007" lon="7.47778424"><ele>1702.63208</ele><time>2006-01-15T14:01:50Z</time></trkpt>
<trkpt lat="46.14790474" lon="7.47783445"><ele>1701.670898</ele><time>2006-01-15T14:01:53Z</time></trkpt>
<trkpt lat="46.14795528" lon="7.47799991"><ele>1694.460938</ele><time>2006-01-15T14:02:05Z</time></trkpt>
<trkpt lat="46.14806106" lon="7.47815866"><ele>1692.538574</ele><time>2006-01-15T14:02:17Z</time></trkpt>
<trkpt lat="46.14816181" lon="7.47818523"><ele>1693.499756</ele><time>2006-01-15T14:02:21Z</time></trkpt>
<trkpt lat="46.14825645" lon="7.47830953"><ele>1688.693115</ele><time>2006-01-15T14:02:31Z</time></trkpt>
<trkpt lat="46.14844579" lon="7.47852554"><ele>1682.925049</ele><time>2006-01-15T14:02:54Z</time></trkpt>
<trkpt lat="46.14856473" lon="7.47758919"><ele>1670.427979</ele><time>2006-01-15T14:03:39Z</time></trkpt>
<trkpt lat="46.14855543" lon="7.47753882"><ele>1670.427979</ele><time>2006-01-15T14:03:41Z</time></trkpt>
<trkpt lat="46.14855920" lon="7.47733497"><ele>1669.466797</ele><time>2006-01-15T14:03:51Z</time></trkpt>
<trkpt lat="46.14853841" lon="7.47708276"><ele>1667.543945</ele><time>2006-01-15T14:04:03Z</time></trkpt>
<trkpt lat="46.14855845" lon="7.47683960"><ele>1667.543945</ele><time>2006-01-15T14:04:14Z</time></trkpt>
<trkpt lat="46.14858828" lon="7.47652511"><ele>1664.179443</ele><time>2006-01-15T14:04:29Z</time></trkpt>
<trkpt lat="46.14862466" lon="7.47626980"><ele>1664.179443</ele><time>2006-01-15T14:04:42Z</time></trkpt>
<trkpt lat="46.14866582" lon="7.47599772"><ele>1664.179443</ele><time>2006-01-15T14:04:56Z</time></trkpt>
<trkpt lat="46.14868015" lon="7.47581684"><ele>1666.102051</ele><time>2006-01-15T14:05:06Z</time></trkpt>
<trkpt lat="46.14869264" lon="7.47567200"><ele>1663.69873</ele><time>2006-01-15T14:05:15Z</time></trkpt>
<trkpt lat="46.14870379" lon="7.47549816"><ele>1661.295654</ele><time>2006-01-15T14:05:25Z</time></trkpt>
<trkpt lat="46.14871426" lon="7.47531988"><ele>1661.776367</ele><time>2006-01-15T14:05:35Z</time></trkpt>
<trkpt lat="46.14872248" lon="7.47518216"><ele>1665.621582</ele><time>2006-01-15T14:05:44Z</time></trkpt>
<trkpt lat="46.14872508" lon="7.47504101"><ele>1665.140869</ele><time>2006-01-15T14:05:53Z</time></trkpt>
<trkpt lat="46.14876674" lon="7.47482920"><ele>1662.256836</ele><time>2006-01-15T14:06:07Z</time></trkpt>
<trkpt lat="46.14882323" lon="7.47463323"><ele>1663.69873</ele><time>2006-01-15T14:06:19Z</time></trkpt>
<trkpt lat="46.14888383" lon="7.47448563"><ele>1663.218262</ele><time>2006-01-15T14:06:29Z</time></trkpt>
<trkpt lat="46.14888827" lon="7.47446945"><ele>1663.218262</ele><time>2006-01-15T14:06:30Z</time></trkpt>
<trkpt lat="46.14892767" lon="7.47437909"><ele>1663.69873</ele><time>2006-01-15T14:06:36Z</time></trkpt>
<trkpt lat="46.14904694" lon="7.47421439"><ele>1662.737549</ele><time>2006-01-15T14:06:48Z</time></trkpt>
<trkpt lat="46.14921240" lon="7.47409352"><ele>1663.218262</ele><time>2006-01-15T14:07:01Z</time></trkpt>
<trkpt lat="46.14926755" lon="7.47406402"><ele>1662.737549</ele><time>2006-01-15T14:07:05Z</time></trkpt>
<trkpt lat="46.14940393" lon="7.47381566"><ele>1663.218262</ele><time>2006-01-15T14:07:22Z</time></trkpt>
<trkpt lat="46.14948054" lon="7.47361776"><ele>1663.69873</ele><time>2006-01-15T14:07:34Z</time></trkpt>
<trkpt lat="46.14955639" lon="7.47341760"><ele>1664.179443</ele><time>2006-01-15T14:07:47Z</time></trkpt>
<trkpt lat="46.14962856" lon="7.47324879"><ele>1663.69873</ele><time>2006-01-15T14:07:59Z</time></trkpt>
<trkpt lat="46.14968933" lon="7.47307554"><ele>1663.218262</ele><time>2006-01-15T14:08:10Z</time></trkpt>
<trkpt lat="46.14974583" lon="7.47293640"><ele>1664.660156</ele><time>2006-01-15T14:08:20Z</time></trkpt>
<trkpt lat="46.14980131" lon="7.47277346"><ele>1668.024658</ele><time>2006-01-15T14:08:30Z</time></trkpt>
<trkpt lat="46.14986275" lon="7.47261705"><ele>1669.947266</ele><time>2006-01-15T14:08:40Z</time></trkpt>
<trkpt lat="46.14993635" lon="7.47241312"><ele>1671.869873</ele><time>2006-01-15T14:08:52Z</time></trkpt>
<trkpt lat="46.14999301" lon="7.47224447"><ele>1671.869873</ele><time>2006-01-15T14:09:02Z</time></trkpt>
<trkpt lat="46.15007716" lon="7.47204834"><ele>1672.350586</ele><time>2006-01-15T14:09:14Z</time></trkpt>
<trkpt lat="46.15014640" lon="7.47185891"><ele>1672.831299</ele><time>2006-01-15T14:09:26Z</time></trkpt>
<trkpt lat="46.15023717" lon="7.47170485"><ele>1672.831299</ele><time>2006-01-15T14:09:37Z</time></trkpt>
<trkpt lat="46.15031973" lon="7.47161072"><ele>1672.350586</ele><time>2006-01-15T14:09:45Z</time></trkpt>
<trkpt lat="46.15045871" lon="7.47149169"><ele>1672.350586</ele><time>2006-01-15T14:09:57Z</time></trkpt>
<trkpt lat="46.15056440" lon="7.47135599"><ele>1672.831299</ele><time>2006-01-15T14:10:08Z</time></trkpt>
<trkpt lat="46.15067446" lon="7.47120788"><ele>1670.908691</ele><time>2006-01-15T14:10:19Z</time></trkpt>
<trkpt lat="46.15075517" lon="7.47103731"><ele>1670.427979</ele><time>2006-01-15T14:10:30Z</time></trkpt>
<trkpt lat="46.15078501" lon="7.47096925"><ele>1669.466797</ele><time>2006-01-15T14:10:35Z</time></trkpt>
<trkpt lat="46.15083095" lon="7.47091326"><ele>1669.466797</ele><time>2006-01-15T14:10:44Z</time></trkpt>
<trkpt lat="46.15085056" lon="7.47088962"><ele>1669.466797</ele><time>2006-01-15T14:10:52Z</time></trkpt>
<trkpt lat="46.15086640" lon="7.47083472"><ele>1669.466797</ele><time>2006-01-15T14:11:00Z</time></trkpt>
<trkpt lat="46.15086431" lon="7.47082734"><ele>1668.024658</ele><time>2006-01-15T14:11:12Z</time></trkpt>
<trkpt lat="46.15086313" lon="7.47083137"><ele>1666.582764</ele><time>2006-01-15T14:11:34Z</time></trkpt>
<trkpt lat="46.15086230" lon="7.47082508"><ele>1668.505371</ele><time>2006-01-15T14:11:48Z</time></trkpt>
<trkpt lat="46.15085735" lon="7.47068510"><ele>1666.582764</ele><time>2006-01-15T14:11:58Z</time></trkpt>
<trkpt lat="46.15084603" lon="7.47062308"><ele>1666.102051</ele><time>2006-01-15T14:12:02Z</time></trkpt>
<trkpt lat="46.15083137" lon="7.47056030"><ele>1665.621582</ele><time>2006-01-15T14:12:06Z</time></trkpt>
<trkpt lat="46.15082215" lon="7.47053917"><ele>1665.140869</ele><time>2006-01-15T14:12:08Z</time></trkpt>
<trkpt lat="46.15081150" lon="7.47050389"><ele>1665.140869</ele><time>2006-01-15T14:12:17Z</time></trkpt>
<trkpt lat="46.15076213" lon="7.47034681"><ele>1665.140869</ele><time>2006-01-15T14:12:27Z</time></trkpt>
<trkpt lat="46.15074269" lon="7.47029996"><ele>1664.660156</ele><time>2006-01-15T14:12:31Z</time></trkpt>
<trkpt lat="46.15069164" lon="7.47020004"><ele>1662.256836</ele><time>2006-01-15T14:12:40Z</time></trkpt>
<trkpt lat="46.15067286" lon="7.47004934"><ele>1659.853271</ele><time>2006-01-15T14:12:51Z</time></trkpt>
<trkpt lat="46.15062450" lon="7.46990399"><ele>1657.930908</ele><time>2006-01-15T14:13:04Z</time></trkpt>
<trkpt lat="46.15059324" lon="7.46980157"><ele>1655.046875</ele><time>2006-01-15T14:13:11Z</time></trkpt>
<trkpt lat="46.15062282" lon="7.46973099"><ele>1653.60498</ele><time>2006-01-15T14:13:19Z</time></trkpt>
<trkpt lat="46.15063154" lon="7.46970124"><ele>1653.60498</ele><time>2006-01-15T14:13:21Z</time></trkpt>
<trkpt lat="46.15079977" lon="7.46955254"><ele>1651.682373</ele><time>2006-01-15T14:13:36Z</time></trkpt>
<trkpt lat="46.15092533" lon="7.46962379"><ele>1648.317627</ele><time>2006-01-15T14:13:45Z</time></trkpt>
<trkpt lat="46.15110210" lon="7.46966486"><ele>1646.875732</ele><time>2006-01-15T14:13:58Z</time></trkpt>
<trkpt lat="46.15116471" lon="7.46965136"><ele>1646.875732</ele><time>2006-01-15T14:14:04Z</time></trkpt>
<trkpt lat="46.15127536" lon="7.46957961"><ele>1646.395264</ele><time>2006-01-15T14:14:13Z</time></trkpt>
<trkpt lat="46.15140569" lon="7.46952379"><ele>1646.395264</ele><time>2006-01-15T14:14:23Z</time></trkpt>
<trkpt lat="46.15152388" lon="7.46945556"><ele>1647.837158</ele><time>2006-01-15T14:14:33Z</time></trkpt>
<trkpt lat="46.15156956" lon="7.46942832"><ele>1648.79834</ele><time>2006-01-15T14:14:37Z</time></trkpt>
<trkpt lat="46.15170266" lon="7.46937568"><ele>1651.682373</ele><time>2006-01-15T14:14:49Z</time></trkpt>
<trkpt lat="46.15182873" lon="7.46932950"><ele>1649.759766</ele><time>2006-01-15T14:14:59Z</time></trkpt>
<trkpt lat="46.15198564" lon="7.46934702"><ele>1647.837158</ele><time>2006-01-15T14:15:10Z</time></trkpt>
<trkpt lat="46.15209083" lon="7.46927259"><ele>1646.875732</ele><time>2006-01-15T14:15:20Z</time></trkpt>
<trkpt lat="46.15220315" lon="7.46916739"><ele>1647.837158</ele><time>2006-01-15T14:15:32Z</time></trkpt>
<trkpt lat="46.15233022" lon="7.46904393"><ele>1646.875732</ele><time>2006-01-15T14:15:43Z</time></trkpt>
<trkpt lat="46.15240624" lon="7.46891619"><ele>1645.433838</ele><time>2006-01-15T14:15:52Z</time></trkpt>
<trkpt lat="46.15247405" lon="7.46876674"><ele>1646.875732</ele><time>2006-01-15T14:16:02Z</time></trkpt>
<trkpt lat="46.15253189" lon="7.46865459"><ele>1647.356445</ele><time>2006-01-15T14:16:11Z</time></trkpt>
<trkpt lat="46.15257229" lon="7.46853355"><ele>1650.240479</ele><time>2006-01-15T14:16:20Z</time></trkpt>
<trkpt lat="46.15259559" lon="7.46844336"><ele>1652.162842</ele><time>2006-01-15T14:16:26Z</time></trkpt>
<trkpt lat="46.15262702" lon="7.46833540"><ele>1653.124268</ele><time>2006-01-15T14:16:35Z</time></trkpt>
<trkpt lat="46.15265368" lon="7.46824245"><ele>1653.60498</ele><time>2006-01-15T14:16:43Z</time></trkpt>
<trkpt lat="46.15268100" lon="7.46816249"><ele>1654.085693</ele><time>2006-01-15T14:16:50Z</time></trkpt>
<trkpt lat="46.15273632" lon="7.46806869"><ele>1656.008057</ele><time>2006-01-15T14:16:59Z</time></trkpt>
<trkpt lat="46.15276289" lon="7.46805679"><ele>1656.48877</ele><time>2006-01-15T14:17:01Z</time></trkpt>
<trkpt lat="46.15289524" lon="7.46800449"><ele>1656.48877</ele><time>2006-01-15T14:17:13Z</time></trkpt>
<trkpt lat="46.15297621" lon="7.46796669"><ele>1656.48877</ele><time>2006-01-15T14:17:20Z</time></trkpt>
<trkpt lat="46.15311217" lon="7.46793291"><ele>1656.008057</ele><time>2006-01-15T14:17:31Z</time></trkpt>
<trkpt lat="46.15320956" lon="7.46787650"><ele>1655.527588</ele><time>2006-01-15T14:17:40Z</time></trkpt>
<trkpt lat="46.15332917" lon="7.46778086"><ele>1654.085693</ele><time>2006-01-15T14:17:51Z</time></trkpt>
<trkpt lat="46.15339631" lon="7.46772177"><ele>1656.008057</ele><time>2006-01-15T14:18:00Z</time></trkpt>
<trkpt lat="46.15341316" lon="7.46771431"><ele>1656.969482</ele><time>2006-01-15T14:18:08Z</time></trkpt>
<trkpt lat="46.15343210" lon="7.46770442"><ele>1657.930908</ele><time>2006-01-15T14:18:19Z</time></trkpt>
<trkpt lat="46.15345943" lon="7.46766938"><ele>1651.20166</ele><time>2006-01-15T14:18:42Z</time></trkpt>
<trkpt lat="46.15344199" lon="7.46768254"><ele>1651.682373</ele><time>2006-01-15T14:18:52Z</time></trkpt>
<trkpt lat="46.15343931" lon="7.46769360"><ele>1654.085693</ele><time>2006-01-15T14:19:07Z</time></trkpt>
<trkpt lat="46.15343579" lon="7.46768857"><ele>1662.256836</ele><time>2006-01-15T14:19:28Z</time></trkpt>
<trkpt lat="46.15344132" lon="7.46768447"><ele>1658.411377</ele><time>2006-01-15T14:19:47Z</time></trkpt>
<trkpt lat="46.15351383" lon="7.46765253"><ele>1656.48877</ele><time>2006-01-15T14:19:55Z</time></trkpt>
<trkpt lat="46.15352430" lon="7.46764180"><ele>1655.046875</ele><time>2006-01-15T14:20:04Z</time></trkpt>
<trkpt lat="46.15354333" lon="7.46767935"><ele>1655.046875</ele><time>2006-01-15T14:20:12Z</time></trkpt>
<trkpt lat="46.15351039" lon="7.46768539"><ele>1656.48877</ele><time>2006-01-15T14:20:24Z</time></trkpt>
<trkpt lat="46.15349228" lon="7.46766477"><ele>1658.89209</ele><time>2006-01-15T14:20:32Z</time></trkpt>
<trkpt lat="46.15352690" lon="7.46743393"><ele>1661.295654</ele><time>2006-01-15T14:20:44Z</time></trkpt>
<trkpt lat="46.15356244" lon="7.46725263"><ele>1658.89209</ele><time>2006-01-15T14:20:55Z</time></trkpt>
<trkpt lat="46.15357745" lon="7.46710637"><ele>1658.89209</ele><time>2006-01-15T14:21:05Z</time></trkpt>
<trkpt lat="46.15360452" lon="7.46685675"><ele>1659.853271</ele><time>2006-01-15T14:21:25Z</time></trkpt>
<trkpt lat="46.15372295" lon="7.46668425"><ele>1657.450195</ele><time>2006-01-15T14:21:37Z</time></trkpt>
<trkpt lat="46.15391993" lon="7.46666816"><ele>1655.527588</ele><time>2006-01-15T14:21:48Z</time></trkpt>
<trkpt lat="46.15415001" lon="7.46663639"><ele>1652.162842</ele><time>2006-01-15T14:22:03Z</time></trkpt>
<trkpt lat="46.15426325" lon="7.46655039"><ele>1651.682373</ele><time>2006-01-15T14:22:12Z</time></trkpt>
<trkpt lat="46.15430600" lon="7.46627748"><ele>1652.643555</ele><time>2006-01-15T14:22:24Z</time></trkpt>
<trkpt lat="46.15439158" lon="7.46602259"><ele>1651.20166</ele><time>2006-01-15T14:22:38Z</time></trkpt>
<trkpt lat="46.15451144" lon="7.46586258"><ele>1651.20166</ele><time>2006-01-15T14:22:50Z</time></trkpt>
<trkpt lat="46.15455980" lon="7.46584380"><ele>1650.720947</ele><time>2006-01-15T14:22:55Z</time></trkpt>
<trkpt lat="46.15456316" lon="7.46578387"><ele>1651.682373</ele><time>2006-01-15T14:23:03Z</time></trkpt>
<trkpt lat="46.15456425" lon="7.46578270"><ele>1651.682373</ele><time>2006-01-15T14:23:04Z</time></trkpt>
<trkpt lat="46.15464203" lon="7.46559176"><ele>1652.162842</ele><time>2006-01-15T14:23:15Z</time></trkpt>
<trkpt lat="46.15475887" lon="7.46541448"><ele>1651.20166</ele><time>2006-01-15T14:23:27Z</time></trkpt>
<trkpt lat="46.15492685" lon="7.46524047"><ele>1648.317627</ele><time>2006-01-15T14:23:41Z</time></trkpt>
<trkpt lat="46.15500505" lon="7.46507384"><ele>1647.356445</ele><time>2006-01-15T14:23:51Z</time></trkpt>
<trkpt lat="46.15511821" lon="7.46492590"><ele>1646.875732</ele><time>2006-01-15T14:24:01Z</time></trkpt>
<trkpt lat="46.15526229" lon="7.46482473"><ele>1646.395264</ele><time>2006-01-15T14:24:12Z</time></trkpt>
<trkpt lat="46.15544611" lon="7.46469816"><ele>1645.914551</ele><time>2006-01-15T14:24:25Z</time></trkpt>
<trkpt lat="46.15560000" lon="7.46456481"><ele>1644.953125</ele><time>2006-01-15T14:24:37Z</time></trkpt>
<trkpt lat="46.15570662" lon="7.46434201"><ele>1644.953125</ele><time>2006-01-15T14:24:50Z</time></trkpt>
<trkpt lat="46.15576303" lon="7.46414093"><ele>1642.549805</ele><time>2006-01-15T14:25:00Z</time></trkpt>
<trkpt lat="46.15587945" lon="7.46389283"><ele>1641.107666</ele><time>2006-01-15T14:25:14Z</time></trkpt>
<trkpt lat="46.15599621" lon="7.46371153"><ele>1640.146484</ele><time>2006-01-15T14:25:25Z</time></trkpt>
<trkpt lat="46.15615580" lon="7.46353417"><ele>1638.223877</ele><time>2006-01-15T14:25:38Z</time></trkpt>
<trkpt lat="46.15633132" lon="7.46341045"><ele>1636.30127</ele><time>2006-01-15T14:25:51Z</time></trkpt>
<trkpt lat="46.15651497" lon="7.46324793"><ele>1636.781738</ele><time>2006-01-15T14:26:05Z</time></trkpt>
<trkpt lat="46.15671203" lon="7.46313360"><ele>1632.936523</ele><time>2006-01-15T14:26:20Z</time></trkpt>
<trkpt lat="46.15680984" lon="7.46306478"><ele>1631.975342</ele><time>2006-01-15T14:26:32Z</time></trkpt>
<trkpt lat="46.15680976" lon="7.46306805"><ele>1632.936523</ele><time>2006-01-15T14:26:40Z</time></trkpt>
</trkseg></trk></gpx>